sensor_id;sensor_type;location;lat;lon;timestamp;P1;durP1;ratioP1;P2;durP2;ratioP2
12556;SDS011;6344;49.932;8.308;2022-08-19T00:00:05;25.03;;;22.93;;
12556;SDS011;6344;49.932;8.308;2022-08-19T00:02:34;27.50;;;25.17;;
12556;SDS011;6344;49.932;8.308;2022-08-19T00:05:01;26.00;;;23.90;;
12556;SDS011;6344;49.932;8.308;2022-08-19T00:07:29;25.50;;;23.33;;
12556;SDS011;6344;49.932;8.308;2022-08-19T00:09:56;26.30;;;24.17;;
12556;SDS011;6344;49.932;8.308;2022-08-19T00:12:23;26.23;;;23.80;;
12556;SDS011;6344;49.932;8.308;2022-08-19T00:14:49;26.00;;;23.70;;
12556;SDS011;6344;49.932;8.308;2022-08-19T00:17:19;26.70;;;24.60;;
12556;SDS011;6344;49.932;8.308;2022-08-19T00:19:46;27.80;;;25.60;;
12556;SDS011;6344;49.932;8.308;2022-08-19T00:22:13;25.17;;;23.17;;
12556;SDS011;6344;49.932;8.308;2022-08-19T00:24:41;24.80;;;22.80;;
12556;SDS011;6344;49.932;8.308;2022-08-19T00:27:08;26.80;;;24.77;;
12556;SDS011;6344;49.932;8.308;2022-08-19T00:29:35;26.30;;;24.23;;
12556;SDS011;6344;49.932;8.308;2022-08-19T00:32:02;29.90;;;27.03;;
12556;SDS011;6344;49.932;8.308;2022-08-19T00:34:31;26.93;;;24.93;;
12556;SDS011;6344;49.932;8.308;2022-08-19T00:36:58;25.27;;;23.20;;
12556;SDS011;6344;49.932;8.308;2022-08-19T00:39:25;25.80;;;23.67;;
12556;SDS011;6344;49.932;8.308;2022-08-19T00:41:51;26.40;;;24.30;;
12556;SDS011;6344;49.932;8.308;2022-08-19T00:44:19;25.83;;;23.73;;
12556;SDS011;6344;49.932;8.308;2022-08-19T00:46:49;24.27;;;22.37;;
12556;SDS011;6344;49.932;8.308;2022-08-19T00:49:18;25.80;;;23.60;;
12556;SDS011;6344;49.932;8.308;2022-08-19T00:51:51;26.87;;;24.63;;
12556;SDS011;6344;49.932;8.308;2022-08-19T00:54:19;27.03;;;24.80;;
12556;SDS011;6344;49.932;8.308;2022-08-19T00:56:47;27.17;;;25.00;;
12556;SDS011;6344;49.932;8.308;2022-08-19T00:59:16;25.73;;;23.47;;
12556;SDS011;6344;49.932;8.308;2022-08-19T01:01:44;26.57;;;24.37;;
12556;SDS011;6344;49.932;8.308;2022-08-19T01:04:12;28.83;;;26.37;;
12556;SDS011;6344;49.932;8.308;2022-08-19T01:06:39;28.33;;;26.00;;
12556;SDS011;6344;49.932;8.308;2022-08-19T01:09:08;26.93;;;24.73;;
12556;SDS011;6344;49.932;8.308;2022-08-19T01:11:36;28.87;;;26.37;;
12556;SDS011;6344;49.932;8.308;2022-08-19T01:14:07;28.23;;;25.93;;
12556;SDS011;6344;49.932;8.308;2022-08-19T01:16:35;29.77;;;27.07;;
12556;SDS011;6344;49.932;8.308;2022-08-19T01:19:04;26.97;;;24.67;;
12556;SDS011;6344;49.932;8.308;2022-08-19T01:25:02;28.20;;;25.77;;
12556;SDS011;6344;49.932;8.308;2022-08-19T01:27:36;22.97;;;21.07;;
12556;SDS011;6344;49.932;8.308;2022-08-19T01:30:04;27.90;;;25.60;;
12556;SDS011;6344;49.932;8.308;2022-08-19T01:32:32;27.77;;;25.47;;
12556;SDS011;6344;49.932;8.308;2022-08-19T01:34:58;27.47;;;25.30;;
12556;SDS011;6344;49.932;8.308;2022-08-19T01:37:26;27.33;;;25.17;;
12556;SDS011;6344;49.932;8.308;2022-08-19T01:39:54;25.33;;;23.30;;
12556;SDS011;6344;49.932;8.308;2022-08-19T01:42:22;27.03;;;24.83;;
12556;SDS011;6344;49.932;8.308;2022-08-19T01:44:49;25.67;;;23.57;;
12556;SDS011;6344;49.932;8.308;2022-08-19T01:47:15;26.03;;;23.77;;
12556;SDS011;6344;49.932;8.308;2022-08-19T01:49:42;24.80;;;22.63;;
12556;SDS011;6344;49.932;8.308;2022-08-19T01:52:09;25.60;;;23.40;;
12556;SDS011;6344;49.932;8.308;2022-08-19T01:54:35;25.17;;;23.10;;
12556;SDS011;6344;49.932;8.308;2022-08-19T01:57:03;27.90;;;25.43;;
12556;SDS011;6344;49.932;8.308;2022-08-19T01:59:34;28.07;;;25.63;;
12556;SDS011;6344;49.932;8.308;2022-08-19T02:02:01;26.70;;;24.50;;
12556;SDS011;6344;49.932;8.308;2022-08-19T02:04:32;26.30;;;24.20;;
12556;SDS011;6344;49.932;8.308;2022-08-19T02:06:59;27.50;;;24.97;;
12556;SDS011;6344;49.932;8.308;2022-08-19T02:09:25;26.83;;;24.70;;
12556;SDS011;6344;49.932;8.308;2022-08-19T02:11:52;27.43;;;24.93;;
12556;SDS011;6344;49.932;8.308;2022-08-19T02:14:19;25.80;;;23.80;;
12556;SDS011;6344;49.932;8.308;2022-08-19T02:16:47;25.63;;;23.53;;
12556;SDS011;6344;49.932;8.308;2022-08-19T02:19:14;24.13;;;22.33;;
12556;SDS011;6344;49.932;8.308;2022-08-19T02:21:40;24.27;;;21.90;;
12556;SDS011;6344;49.932;8.308;2022-08-19T02:24:08;25.93;;;23.87;;
12556;SDS011;6344;49.932;8.308;2022-08-19T02:26:35;26.03;;;23.80;;
12556;SDS011;6344;49.932;8.308;2022-08-19T02:29:02;25.90;;;23.80;;
12556;SDS011;6344;49.932;8.308;2022-08-19T02:31:29;25.47;;;23.47;;
12556;SDS011;6344;49.932;8.308;2022-08-19T02:33:57;25.60;;;23.37;;
12556;SDS011;6344;49.932;8.308;2022-08-19T02:36:24;24.27;;;22.13;;
12556;SDS011;6344;49.932;8.308;2022-08-19T02:38:52;24.20;;;22.10;;
12556;SDS011;6344;49.932;8.308;2022-08-19T02:41:21;24.60;;;22.70;;
12556;SDS011;6344;49.932;8.308;2022-08-19T02:43:48;26.50;;;24.27;;
12556;SDS011;6344;49.932;8.308;2022-08-19T02:46:17;24.93;;;23.03;;
12556;SDS011;6344;49.932;8.308;2022-08-19T02:48:46;24.20;;;22.33;;
12556;SDS011;6344;49.932;8.308;2022-08-19T02:51:19;23.97;;;21.90;;
12556;SDS011;6344;49.932;8.308;2022-08-19T02:53:47;24.77;;;22.77;;
12556;SDS011;6344;49.932;8.308;2022-08-19T02:56:14;24.20;;;22.30;;
12556;SDS011;6344;49.932;8.308;2022-08-19T02:58:41;24.03;;;22.13;;
12556;SDS011;6344;49.932;8.308;2022-08-19T03:01:08;24.80;;;22.73;;
12556;SDS011;6344;49.932;8.308;2022-08-19T03:03:36;25.50;;;23.50;;
12556;SDS011;6344;49.932;8.308;2022-08-19T03:06:04;25.80;;;23.60;;
12556;SDS011;6344;49.932;8.308;2022-08-19T03:08:34;23.60;;;21.60;;
12556;SDS011;6344;49.932;8.308;2022-08-19T03:11:01;22.63;;;20.73;;
12556;SDS011;6344;49.932;8.308;2022-08-19T03:13:28;24.80;;;22.50;;
12556;SDS011;6344;49.932;8.308;2022-08-19T03:15:55;20.93;;;19.43;;
12556;SDS011;6344;49.932;8.308;2022-08-19T03:18:22;22.97;;;21.00;;
12556;SDS011;6344;49.932;8.308;2022-08-19T03:20:50;24.07;;;22.00;;
12556;SDS011;6344;49.932;8.308;2022-08-19T03:23:19;23.20;;;20.97;;
12556;SDS011;6344;49.932;8.308;2022-08-19T03:25:48;22.53;;;20.53;;
12556;SDS011;6344;49.932;8.308;2022-08-19T03:28:16;21.97;;;20.07;;
12556;SDS011;6344;49.932;8.308;2022-08-19T03:30:54;22.73;;;21.03;;
12556;SDS011;6344;49.932;8.308;2022-08-19T03:33:23;22.07;;;20.40;;
12556;SDS011;6344;49.932;8.308;2022-08-19T03:35:59;20.87;;;19.20;;
12556;SDS011;6344;49.932;8.308;2022-08-19T03:38:30;22.37;;;20.47;;
12556;SDS011;6344;49.932;8.308;2022-08-19T03:40:58;22.57;;;20.67;;
12556;SDS011;6344;49.932;8.308;2022-08-19T03:43:31;22.13;;;20.47;;
12556;SDS011;6344;49.932;8.308;2022-08-19T03:46:02;23.03;;;21.40;;
12556;SDS011;6344;49.932;8.308;2022-08-19T03:48:31;23.50;;;21.70;;
12556;SDS011;6344;49.932;8.308;2022-08-19T03:50:58;23.00;;;21.10;;
12556;SDS011;6344;49.932;8.308;2022-08-19T03:53:25;24.47;;;22.43;;
12556;SDS011;6344;49.932;8.308;2022-08-19T03:55:53;21.70;;;20.00;;
12556;SDS011;6344;49.932;8.308;2022-08-19T03:58:21;23.30;;;21.50;;
12556;SDS011;6344;49.932;8.308;2022-08-19T04:00:48;22.60;;;20.90;;
12556;SDS011;6344;49.932;8.308;2022-08-19T04:03:15;22.27;;;20.47;;
12556;SDS011;6344;49.932;8.308;2022-08-19T04:05:43;22.40;;;20.70;;
12556;SDS011;6344;49.932;8.308;2022-08-19T04:08:10;22.80;;;21.00;;
12556;SDS011;6344;49.932;8.308;2022-08-19T04:10:37;21.03;;;19.43;;
12556;SDS011;6344;49.932;8.308;2022-08-19T04:13:05;23.97;;;22.03;;
12556;SDS011;6344;49.932;8.308;2022-08-19T04:15:38;23.27;;;21.17;;
12556;SDS011;6344;49.932;8.308;2022-08-19T04:18:06;21.67;;;19.77;;
12556;SDS011;6344;49.932;8.308;2022-08-19T04:20:38;21.17;;;19.57;;
12556;SDS011;6344;49.932;8.308;2022-08-19T04:23:09;25.10;;;22.80;;
12556;SDS011;6344;49.932;8.308;2022-08-19T04:25:37;21.90;;;20.20;;
12556;SDS011;6344;49.932;8.308;2022-08-19T04:28:04;22.17;;;20.13;;
12556;SDS011;6344;49.932;8.308;2022-08-19T04:30:38;21.97;;;20.07;;
12556;SDS011;6344;49.932;8.308;2022-08-19T04:33:05;22.40;;;20.60;;
12556;SDS011;6344;49.932;8.308;2022-08-19T04:35:34;21.03;;;19.33;;
12556;SDS011;6344;49.932;8.308;2022-08-19T04:38:02;22.50;;;20.80;;
12556;SDS011;6344;49.932;8.308;2022-08-19T04:40:29;21.93;;;20.20;;
12556;SDS011;6344;49.932;8.308;2022-08-19T04:43:13;22.77;;;20.97;;
12556;SDS011;6344;49.932;8.308;2022-08-19T04:45:42;22.20;;;20.50;;
12556;SDS011;6344;49.932;8.308;2022-08-19T04:48:09;21.50;;;19.70;;
12556;SDS011;6344;49.932;8.308;2022-08-19T04:50:39;21.80;;;19.77;;
12556;SDS011;6344;49.932;8.308;2022-08-19T04:53:07;23.27;;;21.43;;
12556;SDS011;6344;49.932;8.308;2022-08-19T04:55:34;20.73;;;19.03;;
12556;SDS011;6344;49.932;8.308;2022-08-19T04:58:04;22.63;;;20.43;;
12556;SDS011;6344;49.932;8.308;2022-08-19T05:00:31;22.10;;;20.23;;
12556;SDS011;6344;49.932;8.308;2022-08-19T05:02:59;21.27;;;19.57;;
12556;SDS011;6344;49.932;8.308;2022-08-19T05:05:27;21.20;;;19.30;;
12556;SDS011;6344;49.932;8.308;2022-08-19T05:07:53;20.83;;;19.23;;
12556;SDS011;6344;49.932;8.308;2022-08-19T05:10:20;19.87;;;18.17;;
12556;SDS011;6344;49.932;8.308;2022-08-19T05:12:47;21.90;;;19.93;;
12556;SDS011;6344;49.932;8.308;2022-08-19T05:15:14;22.00;;;20.20;;
12556;SDS011;6344;49.932;8.308;2022-08-19T05:17:41;19.67;;;18.07;;
12556;SDS011;6344;49.932;8.308;2022-08-19T05:20:29;20.37;;;18.70;;
12556;SDS011;6344;49.932;8.308;2022-08-19T05:23:10;21.97;;;20.17;;
12556;SDS011;6344;49.932;8.308;2022-08-19T05:25:40;20.03;;;18.50;;
12556;SDS011;6344;49.932;8.308;2022-08-19T05:28:07;19.37;;;17.87;;
12556;SDS011;6344;49.932;8.308;2022-08-19T05:30:34;21.47;;;19.87;;
12556;SDS011;6344;49.932;8.308;2022-08-19T05:33:01;20.07;;;18.50;;
12556;SDS011;6344;49.932;8.308;2022-08-19T05:35:29;19.60;;;17.83;;
12556;SDS011;6344;49.932;8.308;2022-08-19T05:37:56;22.37;;;20.33;;
12556;SDS011;6344;49.932;8.308;2022-08-19T05:40:22;18.97;;;17.27;;
12556;SDS011;6344;49.932;8.308;2022-08-19T05:42:49;20.80;;;19.20;;
12556;SDS011;6344;49.932;8.308;2022-08-19T05:45:16;21.23;;;19.53;;
12556;SDS011;6344;49.932;8.308;2022-08-19T05:47:43;20.73;;;19.10;;
12556;SDS011;6344;49.932;8.308;2022-08-19T05:50:10;19.63;;;18.03;;
12556;SDS011;6344;49.932;8.308;2022-08-19T05:52:38;22.60;;;20.90;;
12556;SDS011;6344;49.932;8.308;2022-08-19T05:55:06;21.17;;;19.47;;
12556;SDS011;6344;49.932;8.308;2022-08-19T05:57:33;22.57;;;20.63;;
12556;SDS011;6344;49.932;8.308;2022-08-19T05:59:59;20.60;;;18.93;;
12556;SDS011;6344;49.932;8.308;2022-08-19T06:02:28;20.80;;;19.30;;
12556;SDS011;6344;49.932;8.308;2022-08-19T06:04:56;20.90;;;19.30;;
12556;SDS011;6344;49.932;8.308;2022-08-19T06:07:22;22.47;;;20.70;;
12556;SDS011;6344;49.932;8.308;2022-08-19T06:09:51;20.73;;;19.13;;
12556;SDS011;6344;49.932;8.308;2022-08-19T06:12:17;20.23;;;18.83;;
12556;SDS011;6344;49.932;8.308;2022-08-19T06:14:44;19.60;;;18.20;;
12556;SDS011;6344;49.932;8.308;2022-08-19T06:17:11;20.47;;;18.77;;
12556;SDS011;6344;49.932;8.308;2022-08-19T06:19:38;20.33;;;18.63;;
12556;SDS011;6344;49.932;8.308;2022-08-19T06:22:05;20.00;;;18.53;;
12556;SDS011;6344;49.932;8.308;2022-08-19T06:24:33;20.53;;;19.03;;
12556;SDS011;6344;49.932;8.308;2022-08-19T06:27:02;19.10;;;17.77;;
12556;SDS011;6344;49.932;8.308;2022-08-19T06:29:30;19.63;;;18.13;;
12556;SDS011;6344;49.932;8.308;2022-08-19T06:31:58;21.03;;;19.43;;
12556;SDS011;6344;49.932;8.308;2022-08-19T06:34:26;19.23;;;17.60;;
12556;SDS011;6344;49.932;8.308;2022-08-19T06:36:54;20.60;;;18.97;;
12556;SDS011;6344;49.932;8.308;2022-08-19T06:39:25;20.60;;;19.00;;
12556;SDS011;6344;49.932;8.308;2022-08-19T06:41:54;20.23;;;18.70;;
12556;SDS011;6344;49.932;8.308;2022-08-19T06:44:25;21.00;;;19.03;;
12556;SDS011;6344;49.932;8.308;2022-08-19T06:46:53;20.93;;;19.33;;
12556;SDS011;6344;49.932;8.308;2022-08-19T06:49:20;27.90;;;19.33;;
12556;SDS011;6344;49.932;8.308;2022-08-19T06:51:47;20.63;;;19.20;;
12556;SDS011;6344;49.932;8.308;2022-08-19T06:54:15;22.33;;;20.73;;
12556;SDS011;6344;49.932;8.308;2022-08-19T06:56:42;20.97;;;19.37;;
12556;SDS011;6344;49.932;8.308;2022-08-19T06:59:11;21.43;;;19.80;;
12556;SDS011;6344;49.932;8.308;2022-08-19T07:01:41;20.57;;;18.93;;
12556;SDS011;6344;49.932;8.308;2022-08-19T07:04:11;21.30;;;19.50;;
12556;SDS011;6344;49.932;8.308;2022-08-19T07:06:39;20.47;;;18.97;;
12556;SDS011;6344;49.932;8.308;2022-08-19T07:09:06;18.93;;;17.30;;
12556;SDS011;6344;49.932;8.308;2022-08-19T07:11:34;18.67;;;17.33;;
12556;SDS011;6344;49.932;8.308;2022-08-19T07:14:03;17.97;;;16.27;;
12556;SDS011;6344;49.932;8.308;2022-08-19T07:16:31;17.60;;;16.07;;
12556;SDS011;6344;49.932;8.308;2022-08-19T07:18:59;16.87;;;15.53;;
12556;SDS011;6344;49.932;8.308;2022-08-19T07:21:27;18.43;;;16.80;;
12556;SDS011;6344;49.932;8.308;2022-08-19T07:23:54;14.87;;;13.53;;
12556;SDS011;6344;49.932;8.308;2022-08-19T07:26:25;16.87;;;15.47;;
12556;SDS011;6344;49.932;8.308;2022-08-19T07:28:56;15.80;;;14.60;;
12556;SDS011;6344;49.932;8.308;2022-08-19T07:31:24;14.60;;;13.30;;
12556;SDS011;6344;49.932;8.308;2022-08-19T07:33:53;15.00;;;13.90;;
12556;SDS011;6344;49.932;8.308;2022-08-19T07:36:24;15.17;;;13.97;;
12556;SDS011;6344;49.932;8.308;2022-08-19T07:38:56;13.23;;;12.13;;
12556;SDS011;6344;49.932;8.308;2022-08-19T07:41:23;14.07;;;12.90;;
12556;SDS011;6344;49.932;8.308;2022-08-19T07:43:53;19.63;;;18.13;;
12556;SDS011;6344;49.932;8.308;2022-08-19T07:46:20;19.03;;;17.40;;
12556;SDS011;6344;49.932;8.308;2022-08-19T07:48:48;19.13;;;17.37;;
12556;SDS011;6344;49.932;8.308;2022-08-19T07:51:17;20.03;;;18.37;;
12556;SDS011;6344;49.932;8.308;2022-08-19T07:53:46;19.07;;;17.77;;
12556;SDS011;6344;49.932;8.308;2022-08-19T07:56:15;18.80;;;17.30;;
12556;SDS011;6344;49.932;8.308;2022-08-19T07:58:43;15.47;;;14.37;;
12556;SDS011;6344;49.932;8.308;2022-08-19T08:01:12;17.90;;;16.50;;
12556;SDS011;6344;49.932;8.308;2022-08-19T08:03:40;17.30;;;15.93;;
12556;SDS011;6344;49.932;8.308;2022-08-19T08:06:25;15.10;;;13.80;;
12556;SDS011;6344;49.932;8.308;2022-08-19T08:09:11;16.50;;;15.30;;
12556;SDS011;6344;49.932;8.308;2022-08-19T08:11:47;15.47;;;14.10;;
12556;SDS011;6344;49.932;8.308;2022-08-19T08:14:16;16.27;;;15.13;;
12556;SDS011;6344;49.932;8.308;2022-08-19T08:16:45;15.30;;;14.10;;
12556;SDS011;6344;49.932;8.308;2022-08-19T08:19:12;18.33;;;17.03;;
12556;SDS011;6344;49.932;8.308;2022-08-19T08:21:40;17.80;;;16.50;;
12556;SDS011;6344;49.932;8.308;2022-08-19T08:24:07;14.97;;;13.93;;
12556;SDS011;6344;49.932;8.308;2022-08-19T08:26:36;14.60;;;13.50;;
12556;SDS011;6344;49.932;8.308;2022-08-19T08:29:03;14.93;;;13.73;;
12556;SDS011;6344;49.932;8.308;2022-08-19T08:31:30;17.23;;;16.07;;
12556;SDS011;6344;49.932;8.308;2022-08-19T08:33:57;16.80;;;15.33;;
12556;SDS011;6344;49.932;8.308;2022-08-19T08:36:24;17.70;;;16.43;;
12556;SDS011;6344;49.932;8.308;2022-08-19T08:38:51;15.70;;;14.50;;
12556;SDS011;6344;49.932;8.308;2022-08-19T08:41:19;16.70;;;15.10;;
12556;SDS011;6344;49.932;8.308;2022-08-19T08:43:54;16.33;;;15.23;;
12556;SDS011;6344;49.932;8.308;2022-08-19T08:46:24;19.70;;;18.20;;
12556;SDS011;6344;49.932;8.308;2022-08-19T08:48:56;16.97;;;15.77;;
12556;SDS011;6344;49.932;8.308;2022-08-19T08:51:29;13.63;;;12.53;;
12556;SDS011;6344;49.932;8.308;2022-08-19T08:54:00;15.37;;;14.27;;
12556;SDS011;6344;49.932;8.308;2022-08-19T08:56:28;18.80;;;17.47;;
12556;SDS011;6344;49.932;8.308;2022-08-19T08:58:59;24.43;;;22.43;;
12556;SDS011;6344;49.932;8.308;2022-08-19T09:01:33;21.87;;;20.20;;
12556;SDS011;6344;49.932;8.308;2022-08-19T09:04:02;23.20;;;21.57;;
12556;SDS011;6344;49.932;8.308;2022-08-19T09:06:32;21.90;;;20.00;;
12556;SDS011;6344;49.932;8.308;2022-08-19T09:09:05;21.10;;;19.57;;
12556;SDS011;6344;49.932;8.308;2022-08-19T09:11:44;21.00;;;19.40;;
12556;SDS011;6344;49.932;8.308;2022-08-19T09:14:27;20.93;;;19.50;;
12556;SDS011;6344;49.932;8.308;2022-08-19T09:17:00;23.63;;;21.90;;
12556;SDS011;6344;49.932;8.308;2022-08-19T09:19:28;22.43;;;20.93;;
12556;SDS011;6344;49.932;8.308;2022-08-19T09:21:56;19.20;;;17.90;;
12556;SDS011;6344;49.932;8.308;2022-08-19T09:24:25;19.10;;;17.33;;
12556;SDS011;6344;49.932;8.308;2022-08-19T09:26:52;23.47;;;21.87;;
12556;SDS011;6344;49.932;8.308;2022-08-19T09:29:19;21.67;;;20.17;;
12556;SDS011;6344;49.932;8.308;2022-08-19T09:31:47;18.50;;;17.30;;
12556;SDS011;6344;49.932;8.308;2022-08-19T09:34:14;18.60;;;17.10;;
12556;SDS011;6344;49.932;8.308;2022-08-19T09:36:41;15.17;;;14.07;;
12556;SDS011;6344;49.932;8.308;2022-08-19T09:39:08;21.93;;;20.37;;
12556;SDS011;6344;49.932;8.308;2022-08-19T09:41:35;16.93;;;15.83;;
12556;SDS011;6344;49.932;8.308;2022-08-19T09:44:01;16.97;;;15.73;;
12556;SDS011;6344;49.932;8.308;2022-08-19T09:46:28;18.20;;;16.90;;
12556;SDS011;6344;49.932;8.308;2022-08-19T09:48:58;16.93;;;15.83;;
12556;SDS011;6344;49.932;8.308;2022-08-19T09:51:26;17.10;;;16.00;;
12556;SDS011;6344;49.932;8.308;2022-08-19T09:53:54;15.67;;;14.67;;
12556;SDS011;6344;49.932;8.308;2022-08-19T09:56:25;18.80;;;17.60;;
12556;SDS011;6344;49.932;8.308;2022-08-19T09:58:52;14.53;;;13.63;;
12556;SDS011;6344;49.932;8.308;2022-08-19T10:01:19;18.60;;;17.40;;
12556;SDS011;6344;49.932;8.308;2022-08-19T10:03:49;23.03;;;21.33;;
12556;SDS011;6344;49.932;8.308;2022-08-19T10:06:19;23.20;;;21.80;;
12556;SDS011;6344;49.932;8.308;2022-08-19T10:08:47;22.23;;;20.80;;
12556;SDS011;6344;49.932;8.308;2022-08-19T10:11:14;23.00;;;21.47;;
12556;SDS011;6344;49.932;8.308;2022-08-19T10:13:42;22.97;;;21.37;;
12556;SDS011;6344;49.932;8.308;2022-08-19T10:16:10;21.07;;;19.77;;
12556;SDS011;6344;49.932;8.308;2022-08-19T10:18:39;17.90;;;16.70;;
12556;SDS011;6344;49.932;8.308;2022-08-19T10:21:08;17.97;;;16.57;;
12556;SDS011;6344;49.932;8.308;2022-08-19T10:23:38;16.97;;;15.87;;
12556;SDS011;6344;49.932;8.308;2022-08-19T10:26:09;16.07;;;15.10;;
12556;SDS011;6344;49.932;8.308;2022-08-19T10:28:36;15.57;;;14.47;;
12556;SDS011;6344;49.932;8.308;2022-08-19T10:31:04;14.60;;;13.60;;
12556;SDS011;6344;49.932;8.308;2022-08-19T10:33:31;15.77;;;14.87;;
12556;SDS011;6344;49.932;8.308;2022-08-19T10:35:59;16.53;;;15.53;;
12556;SDS011;6344;49.932;8.308;2022-08-19T10:38:27;14.00;;;13.17;;
12556;SDS011;6344;49.932;8.308;2022-08-19T10:40:56;16.33;;;15.23;;
12556;SDS011;6344;49.932;8.308;2022-08-19T10:43:23;13.27;;;12.40;;
12556;SDS011;6344;49.932;8.308;2022-08-19T10:45:53;13.83;;;12.93;;
12556;SDS011;6344;49.932;8.308;2022-08-19T10:48:23;11.60;;;10.90;;
12556;SDS011;6344;49.932;8.308;2022-08-19T10:50:50;14.00;;;13.10;;
12556;SDS011;6344;49.932;8.308;2022-08-19T10:53:34;14.13;;;13.30;;
12556;SDS011;6344;49.932;8.308;2022-08-19T10:56:02;13.50;;;12.70;;
12556;SDS011;6344;49.932;8.308;2022-08-19T10:58:47;12.13;;;11.43;;
12556;SDS011;6344;49.932;8.308;2022-08-19T11:01:14;11.53;;;10.83;;
12556;SDS011;6344;49.932;8.308;2022-08-19T11:03:41;14.50;;;13.60;;
12556;SDS011;6344;49.932;8.308;2022-08-19T11:06:10;13.70;;;12.97;;
12556;SDS011;6344;49.932;8.308;2022-08-19T11:08:37;11.67;;;11.03;;
12556;SDS011;6344;49.932;8.308;2022-08-19T11:11:06;13.17;;;12.10;;
12556;SDS011;6344;49.932;8.308;2022-08-19T11:13:35;12.17;;;11.37;;
12556;SDS011;6344;49.932;8.308;2022-08-19T11:16:04;14.00;;;13.10;;
12556;SDS011;6344;49.932;8.308;2022-08-19T11:18:33;13.60;;;12.80;;
12556;SDS011;6344;49.932;8.308;2022-08-19T11:21:07;13.00;;;12.23;;
12556;SDS011;6344;49.932;8.308;2022-08-19T11:23:35;11.93;;;11.23;;
12556;SDS011;6344;49.932;8.308;2022-08-19T11:26:02;12.23;;;11.53;;
12556;SDS011;6344;49.932;8.308;2022-08-19T11:28:30;13.53;;;12.53;;
12556;SDS011;6344;49.932;8.308;2022-08-19T11:30:57;11.70;;;11.00;;
12556;SDS011;6344;49.932;8.308;2022-08-19T11:33:24;12.10;;;11.40;;
12556;SDS011;6344;49.932;8.308;2022-08-19T11:35:52;12.10;;;11.40;;
12556;SDS011;6344;49.932;8.308;2022-08-19T11:38:19;12.20;;;11.57;;
12556;SDS011;6344;49.932;8.308;2022-08-19T11:40:53;12.00;;;11.40;;
12556;SDS011;6344;49.932;8.308;2022-08-19T11:43:20;12.70;;;12.00;;
12556;SDS011;6344;49.932;8.308;2022-08-19T11:45:48;11.90;;;11.20;;
12556;SDS011;6344;49.932;8.308;2022-08-19T11:48:16;11.20;;;10.40;;
12556;SDS011;6344;49.932;8.308;2022-08-19T11:50:47;10.37;;;9.87;;
12556;SDS011;6344;49.932;8.308;2022-08-19T11:53:14;10.20;;;9.70;;
12556;SDS011;6344;49.932;8.308;2022-08-19T11:55:41;10.70;;;10.00;;
12556;SDS011;6344;49.932;8.308;2022-08-19T11:58:09;10.40;;;9.90;;
12556;SDS011;6344;49.932;8.308;2022-08-19T12:00:37;10.47;;;9.77;;
12556;SDS011;6344;49.932;8.308;2022-08-19T12:03:06;11.63;;;10.93;;
12556;SDS011;6344;49.932;8.308;2022-08-19T12:05:33;11.83;;;11.13;;
12556;SDS011;6344;49.932;8.308;2022-08-19T12:08:02;11.80;;;11.10;;
12556;SDS011;6344;49.932;8.308;2022-08-19T12:10:29;11.13;;;10.53;;
12556;SDS011;6344;49.932;8.308;2022-08-19T12:12:55;11.67;;;10.93;;
12556;SDS011;6344;49.932;8.308;2022-08-19T12:15:22;12.43;;;11.63;;
12556;SDS011;6344;49.932;8.308;2022-08-19T12:17:49;12.03;;;11.43;;
12556;SDS011;6344;49.932;8.308;2022-08-19T12:20:18;11.40;;;10.80;;
12556;SDS011;6344;49.932;8.308;2022-08-19T12:22:45;12.13;;;11.50;;
12556;SDS011;6344;49.932;8.308;2022-08-19T12:25:13;12.37;;;11.50;;
12556;SDS011;6344;49.932;8.308;2022-08-19T12:27:40;12.00;;;11.40;;
12556;SDS011;6344;49.932;8.308;2022-08-19T12:30:08;12.03;;;11.43;;
12556;SDS011;6344;49.932;8.308;2022-08-19T12:32:38;10.30;;;9.80;;
12556;SDS011;6344;49.932;8.308;2022-08-19T12:35:06;11.67;;;11.07;;
12556;SDS011;6344;49.932;8.308;2022-08-19T12:37:35;12.10;;;11.50;;
12556;SDS011;6344;49.932;8.308;2022-08-19T12:40:02;12.40;;;11.70;;
12556;SDS011;6344;49.932;8.308;2022-08-19T12:42:30;11.10;;;10.60;;
12556;SDS011;6344;49.932;8.308;2022-08-19T12:44:56;11.93;;;11.03;;
12556;SDS011;6344;49.932;8.308;2022-08-19T12:47:23;11.50;;;10.80;;
12556;SDS011;6344;49.932;8.308;2022-08-19T12:49:51;12.57;;;11.53;;
12556;SDS011;6344;49.932;8.308;2022-08-19T12:52:18;10.40;;;9.90;;
12556;SDS011;6344;49.932;8.308;2022-08-19T12:54:47;12.13;;;11.30;;
12556;SDS011;6344;49.932;8.308;2022-08-19T12:57:14;11.00;;;10.40;;
12556;SDS011;6344;49.932;8.308;2022-08-19T12:59:41;11.53;;;10.83;;
12556;SDS011;6344;49.932;8.308;2022-08-19T13:02:08;12.50;;;11.80;;
12556;SDS011;6344;49.932;8.308;2022-08-19T13:04:37;11.90;;;11.20;;
12556;SDS011;6344;49.932;8.308;2022-08-19T13:07:06;12.20;;;11.60;;
12556;SDS011;6344;49.932;8.308;2022-08-19T13:09:33;10.80;;;10.10;;
12556;SDS011;6344;49.932;8.308;2022-08-19T13:12:01;11.53;;;10.87;;
12556;SDS011;6344;49.932;8.308;2022-08-19T13:14:32;11.33;;;10.63;;
12556;SDS011;6344;49.932;8.308;2022-08-19T13:16:59;11.00;;;10.40;;
12556;SDS011;6344;49.932;8.308;2022-08-19T13:19:27;9.43;;;8.93;;
12556;SDS011;6344;49.932;8.308;2022-08-19T13:21:55;10.63;;;10.13;;
12556;SDS011;6344;49.932;8.308;2022-08-19T13:24:22;9.53;;;9.03;;
12556;SDS011;6344;49.932;8.308;2022-08-19T13:26:49;10.37;;;9.77;;
12556;SDS011;6344;49.932;8.308;2022-08-19T13:29:17;8.53;;;8.03;;
12556;SDS011;6344;49.932;8.308;2022-08-19T13:32:01;9.83;;;9.33;;
12556;SDS011;6344;49.932;8.308;2022-08-19T13:34:46;10.17;;;9.67;;
12556;SDS011;6344;49.932;8.308;2022-08-19T13:37:12;10.67;;;10.07;;
12556;SDS011;6344;49.932;8.308;2022-08-19T13:39:39;10.80;;;10.20;;
12556;SDS011;6344;49.932;8.308;2022-08-19T13:42:06;11.17;;;10.47;;
12556;SDS011;6344;49.932;8.308;2022-08-19T13:44:36;10.17;;;9.47;;
12556;SDS011;6344;49.932;8.308;2022-08-19T13:47:03;9.73;;;9.13;;
12556;SDS011;6344;49.932;8.308;2022-08-19T13:49:32;9.30;;;8.90;;
12556;SDS011;6344;49.932;8.308;2022-08-19T13:51:59;9.27;;;8.60;;
12556;SDS011;6344;49.932;8.308;2022-08-19T13:54:26;9.00;;;8.43;;
12556;SDS011;6344;49.932;8.308;2022-08-19T13:56:53;9.00;;;8.50;;
12556;SDS011;6344;49.932;8.308;2022-08-19T13:59:19;9.30;;;8.80;;
12556;SDS011;6344;49.932;8.308;2022-08-19T14:01:50;8.33;;;7.83;;
12556;SDS011;6344;49.932;8.308;2022-08-19T14:04:18;8.80;;;8.30;;
12556;SDS011;6344;49.932;8.308;2022-08-19T14:06:44;8.57;;;8.10;;
12556;SDS011;6344;49.932;8.308;2022-08-19T14:09:11;8.70;;;8.20;;
12556;SDS011;6344;49.932;8.308;2022-08-19T14:11:38;8.90;;;8.40;;
12556;SDS011;6344;49.932;8.308;2022-08-19T14:14:04;9.57;;;8.90;;
12556;SDS011;6344;49.932;8.308;2022-08-19T14:16:31;9.00;;;8.50;;
12556;SDS011;6344;49.932;8.308;2022-08-19T14:18:59;8.83;;;8.37;;
12556;SDS011;6344;49.932;8.308;2022-08-19T14:21:26;9.20;;;8.70;;
12556;SDS011;6344;49.932;8.308;2022-08-19T14:23:53;8.70;;;8.20;;
12556;SDS011;6344;49.932;8.308;2022-08-19T14:26:20;9.60;;;8.90;;
12556;SDS011;6344;49.932;8.308;2022-08-19T14:28:48;9.13;;;8.63;;
12556;SDS011;6344;49.932;8.308;2022-08-19T14:31:15;9.60;;;9.10;;
12556;SDS011;6344;49.932;8.308;2022-08-19T14:33:44;9.30;;;8.83;;
12556;SDS011;6344;49.932;8.308;2022-08-19T14:36:13;9.63;;;9.13;;
12556;SDS011;6344;49.932;8.308;2022-08-19T14:38:39;9.27;;;8.67;;
12556;SDS011;6344;49.932;8.308;2022-08-19T14:41:08;10.13;;;9.63;;
12556;SDS011;6344;49.932;8.308;2022-08-19T14:43:38;9.87;;;9.37;;
12556;SDS011;6344;49.932;8.308;2022-08-19T14:46:05;9.33;;;8.73;;